Time;durP1;ratioP1;P1;durP2;ratioP2;P2;SDS_P1;SDS_P2;PMS_P1;PMS_P2;Temp;Humidity;BMP_temperature;BMP_pressure;BME280_temperature;BME280_humidity;BME280_pressure;Samples;Min_cycle;Max_cycle;Signal;HPM_P1;HPM_P2
2022/10/27 00:02:13;;;;;;;9.25;4.40;;;;;;;15.20;65.45;101375.97;5053492;28;20479;-75
2022/10/27 00:04:38;;;;;;;9.57;4.40;;;;;;;15.22;65.11;101374.31;5053263;28;20549;-76
2022/10/27 00:07:04;;;;;;;8.27;4.30;;;;;;;15.26;64.84;101370.97;5053601;28;20395;-75
2022/10/27 00:09:29;;;;;;;9.75;3.92;;;;;;;15.16;65.08;101371.50;5053369;28;20477;-73
2022/10/27 00:11:55;;;;;;;10.35;4.20;;;;;;;15.28;64.48;101374.50;5053458;28;20463;-71
2022/10/27 00:14:21;;;;;;;10.55;4.15;;;;;;;15.07;64.16;101322.69;5053035;28;20025;-74
2022/10/27 00:16:54;;;;;;;7.28;4.32;;;;;;;15.28;64.46;101371.91;5053261;28;20032;-73
2022/10/27 00:19:21;;;;;;;9.13;3.83;;;;;;;15.16;64.32;101376.72;5053059;28;20029;-75
2022/10/27 00:21:47;;;;;;;6.65;3.80;;;;;;;15.09;65.60;101375.63;5053374;28;20057;-71
2022/10/27 00:24:12;;;;;;;6.20;3.60;;;;;;;15.07;65.42;101381.63;5052291;28;20076;-74
2022/10/27 00:26:37;;;;;;;11.43;4.00;;;;;;;14.89;65.60;101341.16;5053102;28;20459;-71
2022/10/27 00:29:03;;;;;;;8.88;3.63;;;;;;;15.17;65.53;101381.09;5052985;28;20472;-77
2022/10/27 00:31:28;;;;;;;7.50;4.20;;;;;;;15.22;65.88;101387.31;5053102;28;20025;-74
2022/10/27 00:33:54;;;;;;;11.00;4.03;;;;;;;15.26;66.29;101365.75;5052792;28;20111;-73
2022/10/27 00:36:21;;;;;;;9.48;3.60;;;;;;;15.30;66.74;101366.75;5052812;28;20721;-73
2022/10/27 00:38:47;;;;;;;8.00;4.00;;;;;;;15.36;66.00;101382.56;5053107;28;20025;-70
2022/10/27 00:41:28;;;;;;;7.25;4.10;;;;;;;15.38;65.69;101378.28;5052671;28;20032;-72
2022/10/27 00:43:54;;;;;;;9.43;4.20;;;;;;;15.16;65.97;101341.16;5052724;28;20037;-73
2022/10/27 00:46:36;;;;;;;7.05;3.75;;;;;;;15.19;65.81;101337.81;5052060;28;20043;-72
2022/10/27 00:49:11;;;;;;;6.70;3.60;;;;;;;15.34;66.02;101376.44;5052731;28;20082;-74
2022/10/27 00:51:49;;;;;;;7.43;3.72;;;;;;;15.26;66.11;101380.50;5052567;28;20482;-72
2022/10/27 00:54:17;;;;;;;10.85;4.57;;;;;;;15.22;66.13;101363.91;5051201;28;20057;-72
2022/10/27 00:56:46;;;;;;;6.28;3.53;;;;;;;15.37;65.88;101372.19;5052459;28;20398;-72
2022/10/27 00:59:12;;;;;;;6.70;4.10;;;;;;;15.39;65.16;101367.06;5052583;28;20032;-70
2022/10/27 01:01:38;;;;;;;6.80;3.88;;;;;;;15.44;65.13;101375.88;5051435;28;20091;-73
2022/10/27 01:04:04;;;;;;;9.75;4.15;;;;;;;15.46;65.66;101378.53;5052512;28;20025;-71
2022/10/27 01:06:29;;;;;;;8.40;3.90;;;;;;;15.52;65.21;101377.00;5052482;28;20087;-72
2022/10/27 01:08:56;;;;;;;9.18;4.38;;;;;;;15.46;64.78;101374.19;5052465;28;20024;-72
2022/10/27 01:11:22;;;;;;;5.43;3.45;;;;;;;15.40;64.99;101373.13;5052282;28;20479;-73
2022/10/27 01:17:31;;;;;;;6.07;3.78;;;;;;;15.20;66.31;101358.66;5251730;22;20087;-70
2022/10/27 01:20:34;;;;;;;8.75;3.97;;;;;;;15.26;66.29;101370.97;5072403;28;20032;-70
2022/10/27 01:23:13;;;;;;;8.80;4.22;;;;;;;15.27;66.56;101362.34;5072707;28;20027;-70
2022/10/27 01:25:57;;;;;;;7.93;4.00;;;;;;;15.32;66.88;101367.69;5072296;28;20419;-70
2022/10/27 01:28:25;;;;;;;9.25;3.75;;;;;;;15.27;67.38;101364.94;5072459;28;20134;-70
2022/10/27 01:30:59;;;;;;;12.48;4.20;;;;;;;15.11;67.58;101371.34;5072225;28;20032;-70
2022/10/27 01:33:32;;;;;;;11.93;4.80;;;;;;;15.00;68.90;101370.13;5039803;28;20033;-72
2022/10/27 01:36:19;;;;;;;9.55;4.30;;;;;;;14.99;69.35;101387.44;5031956;28;20025;-73
2022/10/27 01:38:52;;;;;;;17.27;4.72;;;;;;;14.76;70.53;101378.00;5032240;28;20021;-73
2022/10/27 01:41:23;;;;;;;11.77;4.55;;;;;;;14.83;70.68;101387.78;5032235;28;20091;-70
2022/10/27 01:43:54;;;;;;;9.68;4.43;;;;;;;14.83;71.14;101395.56;5032048;28;20037;-70
2022/10/27 01:46:19;;;;;;;9.13;4.70;;;;;;;14.92;70.94;101389.81;4980985;28;20432;-70
2022/10/27 01:48:45;;;;;;;9.82;4.97;;;;;;;14.60;70.99;101355.75;5031755;28;20033;-72
2022/10/27 01:51:11;;;;;;;10.85;4.63;;;;;;;14.72;70.77;101390.88;5032042;28;20029;-70
2022/10/27 01:53:47;;;;;;;8.38;4.00;;;;;;;14.60;71.44;101382.59;5031737;28;20033;-73
2022/10/27 01:56:31;;;;;;;10.38;4.05;;;;;;;14.57;72.31;101392.91;5031808;28;20021;-72
2022/10/27 01:59:08;;;;;;;11.60;4.70;;;;;;;14.63;72.27;101406.13;5031905;28;20025;-74
2022/10/27 02:01:36;;;;;;;11.30;4.00;;;;;;;14.68;71.94;101394.19;5031972;28;20492;-70
2022/10/27 02:04:28;;;;;;;10.02;4.43;;;;;;;14.52;72.09;101378.88;5039263;28;20028;-72
2022/10/27 02:06:59;;;;;;;11.55;4.70;;;;;;;14.56;71.49;101401.53;4951240;29;20165;-71
2022/10/27 02:10:03;;;;;;;12.63;4.68;;;;;;;14.52;71.52;101397.06;4951459;29;20046;-69
2022/10/27 02:12:32;;;;;;;8.35;4.45;;;;;;;14.25;71.98;101392.63;4894108;29;20048;-71
2022/10/27 02:15:00;;;;;;;7.75;4.57;;;;;;;14.05;72.06;101410.06;4909253;29;20040;-72
2022/10/27 02:17:32;;;;;;;7.95;4.55;;;;;;;13.95;71.95;101402.75;4891317;29;20099;-70
2022/10/27 02:20:02;;;;;;;10.75;4.57;;;;;;;13.96;72.23;101399.34;4893297;29;20119;-70
2022/10/27 02:22:30;;;;;;;10.63;4.50;;;;;;;14.08;72.36;101412.75;4893905;29;20052;-72
2022/10/27 02:24:56;;;;;;;7.95;4.43;;;;;;;13.85;72.96;101419.69;4893763;29;20123;-70
2022/10/27 02:27:33;;;;;;;10.15;4.75;;;;;;;13.67;73.06;101410.34;4894039;29;20036;-72
2022/10/27 02:30:02;;;;;;;7.00;4.20;;;;;;;13.45;73.35;101371.41;4893713;29;20045;-70
2022/10/27 02:32:28;;;;;;;10.33;4.30;;;;;;;13.54;73.29;101384.75;4893794;29;20084;-70
2022/10/27 02:34:56;;;;;;;7.78;4.30;;;;;;;13.73;72.67;101412.28;4893796;29;20055;-70
2022/10/27 02:37:41;;;;;;;7.05;3.90;;;;;;;13.81;72.71;101423.00;4893724;29;20045;-73
2022/10/27 02:40:08;;;;;;;7.80;4.57;;;;;;;13.95;71.95;101418.34;4893851;29;20124;-73
2022/10/27 02:42:33;;;;;;;7.53;4.15;;;;;;;13.98;71.25;101432.31;4911367;28;20063;-72
2022/10/27 02:44:58;;;;;;;7.75;4.32;;;;;;;13.88;70.91;101407.72;4969738;28;20417;-72
2022/10/27 02:47:24;;;;;;;12.15;4.15;;;;;;;14.10;70.96;101425.81;4985532;28;20052;-72
2022/10/27 02:49:49;;;;;;;8.43;3.88;;;;;;;14.04;70.87;101422.16;5030760;28;20032;-71
2022/10/27 02:52:15;;;;;;;13.32;4.20;;;;;;;14.12;70.50;101435.44;5030910;28;20033;-71
2022/10/27 02:54:41;;;;;;;12.30;4.45;;;;;;;13.73;72.23;101360.38;5041229;28;20029;-71
2022/10/27 02:57:07;;;;;;;12.95;4.63;;;;;;;13.98;72.44;101410.66;5030556;28;20029;-72
2022/10/27 02:59:32;;;;;;;10.77;4.60;;;;;;;14.10;73.01;101428.41;5030318;28;20120;-71
2022/10/27 03:01:58;;;;;;;10.00;4.15;;;;;;;13.67;70.04;101405.16;5028163;28;20542;-76
2022/10/27 03:04:23;;;;;;;7.72;4.07;;;;;;;13.82;70.65;101429.94;5030551;28;20037;-72
2022/10/27 03:06:50;;;;;;;9.40;4.13;;;;;;;13.84;70.03;101438.66;5044049;28;20017;-72
2022/10/27 03:09:15;;;;;;;11.75;4.18;;;;;;;13.95;70.26;101444.28;5050218;28;20029;-74
2022/10/27 03:11:40;;;;;;;7.65;3.95;;;;;;;13.98;70.00;101442.69;5043181;28;20028;-72
2022/10/27 03:14:06;;;;;;;13.77;4.40;;;;;;;13.98;71.44;101427.13;5043907;28;20033;-72
2022/10/27 03:16:31;;;;;;;13.80;4.25;;;;;;;14.17;71.94;101444.28;5047132;28;20056;-70
2022/10/27 03:18:57;;;;;;;11.43;4.88;;;;;;;14.15;72.60;101450.25;5049748;28;20060;-72
2022/10/27 03:21:22;;;;;;;13.85;4.50;;;;;;;14.13;73.58;101451.88;5050359;28;20805;-72
2022/10/27 03:23:47;;;;;;;13.95;4.15;;;;;;;13.80;74.08;101401.31;5050086;28;20036;-72
2022/10/27 03:26:13;;;;;;;11.80;4.65;;;;;;;14.08;74.40;101450.00;5050006;28;20029;-70
2022/10/27 03:28:39;;;;;;;10.02;4.28;;;;;;;14.16;74.47;101457.22;5049952;28;20029;-71
2022/10/27 03:31:05;;;;;;;11.40;4.25;;;;;;;14.07;74.62;101447.38;5049435;28;20039;-71
2022/10/27 03:33:31;;;;;;;15.57;4.60;;;;;;;14.08;74.63;101446.50;5050177;28;20028;-73
2022/10/27 03:35:56;;;;;;;14.68;4.28;;;;;;;14.14;74.10;101451.94;5049938;28;20037;-73
2022/10/27 03:38:22;;;;;;;11.68;4.60;;;;;;;14.13;73.86;101445.00;5050164;28;20018;-73
2022/10/27 03:40:47;;;;;;;11.63;5.15;;;;;;;14.12;74.02;101447.50;5032253;28;20043;-73
2022/10/27 03:43:13;;;;;;;14.43;4.88;;;;;;;14.24;73.82;101450.56;5049999;28;20021;-73
2022/10/27 03:45:38;;;;;;;11.60;4.32;;;;;;;14.33;72.81;101450.94;5032238;28;20083;-73
2022/10/27 03:48:07;;;;;;;14.23;4.57;;;;;;;14.34;73.33;101451.81;5050078;28;20032;-75
2022/10/27 03:50:33;;;;;;;15.77;5.05;;;;;;;14.33;73.13;101455.22;5048712;28;20407;-73
2022/10/27 03:52:59;;;;;;;12.32;4.45;;;;;;;14.11;73.36;101412.88;5040540;28;20030;-71
2022/10/27 03:55:25;;;;;;;10.88;5.00;;;;;;;14.37;72.79;101459.72;5045920;28;20037;-71
2022/10/27 03:57:51;;;;;;;12.30;4.60;;;;;;;14.37;72.47;101473.59;5049647;28;20537;-71
2022/10/27 04:00:17;;;;;;;14.18;4.50;;;;;;;14.29;72.88;101464.63;5052466;28;20163;-72
2022/10/27 04:02:43;;;;;;;12.10;4.90;;;;;;;14.32;73.07;101474.28;5053480;28;20104;-71
2022/10/27 04:05:08;;;;;;;15.40;5.03;;;;;;;14.23;73.03;101474.78;5053534;28;20083;-71
2022/10/27 04:07:34;;;;;;;13.23;5.07;;;;;;;14.12;73.41;101464.00;5053526;28;20029;-71
2022/10/27 04:09:59;;;;;;;10.40;4.88;;;;;;;14.20;72.11;101479.88;5052709;28;20418;-72
2022/10/27 04:12:25;;;;;;;13.20;4.82;;;;;;;14.20;71.36;101487.66;5050152;28;20048;-70
2022/10/27 04:14:51;;;;;;;18.40;5.53;;;;;;;14.13;71.26;101485.66;5027194;28;20036;-69
2022/10/27 04:17:17;;;;;;;19.15;5.38;;;;;;;13.96;70.82;101485.00;5046788;28;20053;-73
2022/10/27 04:19:43;;;;;;;22.83;6.60;;;;;;;13.71;70.76;101450.28;5053169;28;20032;-69
2022/10/27 04:22:08;;;;;;;24.98;6.03;;;;;;;13.82;71.15;101492.22;5045060;28;20040;-71
2022/10/27 04:24:34;;;;;;;18.08;5.40;;;;;;;13.82;70.41;101481.84;5053329;28;20494;-71
2022/10/27 04:26:59;;;;;;;17.17;5.05;;;;;;;13.85;70.15;101487.16;5053174;28;20036;-71
2022/10/27 04:29:24;;;;;;;21.08;5.70;;;;;;;13.91;70.01;101495.19;5053333;28;20086;-71
2022/10/27 04:31:50;;;;;;;18.02;5.93;;;;;;;13.96;69.61;101480.69;5053267;28;20025;-71
2022/10/27 04:34:15;;;;;;;16.42;5.82;;;;;;;13.93;69.21;101480.56;5035649;28;20029;-71
2022/10/27 04:36:41;;;;;;;17.25;5.72;;;;;;;13.84;69.13;101491.47;5053188;28;20029;-71
2022/10/27 04:39:06;;;;;;;12.57;5.30;;;;;;;13.65;69.31;101476.00;5035367;28;20040;-71
2022/10/27 04:41:32;;;;;;;18.67;5.68;;;;;;;13.64;69.41;101493.25;5000895;28;20045;-71
2022/10/27 04:43:57;;;;;;;14.65;5.88;;;;;;;13.59;69.62;101492.19;5051623;28;20108;-71
2022/10/27 04:46:23;;;;;;;15.25;6.30;;;;;;;13.54;69.73;101496.28;5052679;28;20032;-71
2022/10/27 04:48:48;;;;;;;42.10;17.80;;;;;;;13.49;69.33;101513.38;5053130;28;20029;-70
2022/10/27 04:51:14;;;;;;;36.13;16.15;;;;;;;13.31;68.74;101500.47;5053093;28;20535;-71
2022/10/27 04:53:39;;;;;;;50.40;14.68;;;;;;;13.29;69.32;101512.50;5051725;28;20384;-71
2022/10/27 04:56:05;;;;;;;36.17;13.82;;;;;;;13.30;69.97;101516.88;5051230;28;20108;-72
2022/10/27 04:58:30;;;;;;;29.23;13.30;;;;;;;13.25;70.24;101520.16;5052749;28;20086;-70
2022/10/27 05:00:56;;;;;;;24.85;10.63;;;;;;;13.23;70.00;101511.44;5053507;28;20033;-71
2022/10/27 05:03:21;;;;;;;26.05;11.35;;;;;;;13.33;69.85;101525.66;5036011;28;20445;-71
2022/10/27 05:05:47;;;;;;;19.85;5.97;;;;;;;13.31;69.74;101529.91;5046164;28;20044;-72
2022/10/27 05:08:14;;;;;;;28.10;8.82;;;;;;;13.24;70.02;101525.28;5039690;28;20036;-72
2022/10/27 05:10:39;;;;;;;21.95;7.45;;;;;;;13.06;70.76;101518.47;5044673;28;20033;-72
2022/10/27 05:13:05;;;;;;;26.52;8.73;;;;;;;13.06;70.78;101527.94;5031309;28;20079;-74
2022/10/27 05:15:30;;;;;;;25.00;9.20;;;;;;;13.03;71.20;101520.91;5031543;28;20026;-72
2022/10/27 05:17:56;;;;;;;21.02;8.43;;;;;;;13.10;71.20;101543.72;5032030;28;20058;-74
2022/10/27 05:20:22;;;;;;;27.63;7.65;;;;;;;13.17;70.29;101542.28;5031396;28;20032;-73
2022/10/27 05:22:48;;;;;;;20.20;7.97;;;;;;;12.95;71.21;101505.03;5031122;28;20395;-72
2022/10/27 05:25:14;;;;;;;20.98;7.55;;;;;;;13.26;71.24;101546.97;5031513;28;20034;-71
2022/10/27 05:27:40;;;;;;;21.58;6.72;;;;;;;13.19;69.47;101544.94;5030722;28;20036;-74
2022/10/27 05:30:07;;;;;;;17.33;6.78;;;;;;;13.26;69.68;101562.53;5031458;28;20034;-71
2022/10/27 05:32:32;;;;;;;16.90;6.40;;;;;;;13.22;70.69;101552.84;5031530;28;20029;-73
2022/10/27 05:34:58;;;;;;;20.27;6.55;;;;;;;13.25;70.71;101566.81;5037418;28;20075;-74
2022/10/27 05:37:23;;;;;;;17.98;6.28;;;;;;;13.20;70.77;101563.16;5051533;28;20029;-73
2022/10/27 05:39:49;;;;;;;18.10;6.57;;;;;;;13.03;70.70;101531.28;5047343;28;20029;-74
2022/10/27 05:42:14;;;;;;;19.38;6.38;;;;;;;13.22;71.66;101574.50;5050879;28;20027;-73
2022/10/27 05:44:40;;;;;;;17.33;6.57;;;;;;;13.18;72.62;101574.28;5051025;28;20028;-74
2022/10/27 05:47:05;;;;;;;15.05;6.32;;;;;;;13.12;73.30;101585.25;5050789;28;20107;-74
2022/10/27 05:49:30;;;;;;;22.35;7.35;;;;;;;12.84;73.43;101536.50;5050623;28;20025;-74
2022/10/27 05:51:56;;;;;;;14.85;6.18;;;;;;;13.14;74.12;101580.16;5050858;28;20033;-73
2022/10/27 05:54:21;;;;;;;13.60;5.90;;;;;;;13.14;74.26;101580.16;5050469;28;20033;-73
2022/10/27 05:56:49;;;;;;;14.18;6.05;;;;;;;13.25;73.98;101586.69;5048698;28;20037;-72
2022/10/27 05:59:14;;;;;;;16.77;6.13;;;;;;;13.26;73.69;101586.75;5050822;28;20048;-74
2022/10/27 06:01:39;;;;;;;14.23;5.65;;;;;;;13.38;73.96;101590.75;5050771;28;20441;-73
2022/10/27 06:04:05;;;;;;;13.73;5.93;;;;;;;13.26;73.88;101562.53;5015143;28;20045;-70
2022/10/27 06:06:30;;;;;;;9.77;4.95;;;;;;;13.46;74.15;101604.03;5051073;28;20078;-70
2022/10/27 06:08:56;;;;;;;15.80;5.88;;;;;;;13.60;73.82;101595.16;5050475;28;20040;-73
2022/10/27 06:11:21;;;;;;;13.48;5.43;;;;;;;13.79;72.72;101607.19;5032499;28;20025;-74
2022/10/27 06:13:51;;;;;;;12.60;5.28;;;;;;;13.97;72.56;101601.88;5050208;28;20463;-72
2022/10/27 06:16:19;;;;;;;16.23;5.57;;;;;;;14.06;71.48;101607.44;5048994;28;20064;-72
2022/10/27 06:18:45;;;;;;;17.70;6.70;;;;;;;14.26;70.89;101604.78;5050290;28;20083;-73
2022/10/27 06:21:10;;;;;;;13.00;6.05;;;;;;;14.43;70.44;101604.56;5050219;28;20550;-72
2022/10/27 06:23:36;;;;;;;11.10;5.68;;;;;;;14.44;70.19;101602.00;5049880;28;20048;-73
2022/10/27 06:26:02;;;;;;;11.88;6.18;;;;;;;14.73;69.66;101617.91;5049825;28;20048;-72
2022/10/27 06:28:28;;;;;;;10.45;5.53;;;;;;;14.81;69.33;101610.41;5049997;28;20028;-73
2022/10/27 06:30:54;;;;;;;14.48;6.00;;;;;;;14.78;69.50;101610.25;5049938;28;20095;-73
2022/10/27 06:33:19;;;;;;;11.88;6.13;;;;;;;15.04;69.21;101612.13;5050206;28;20479;-74
2022/10/27 06:35:46;;;;;;;14.27;6.28;;;;;;;15.28;68.16;101613.84;5049529;28;20495;-73
2022/10/27 06:38:15;;;;;;;15.73;6.22;;;;;;;15.49;67.49;101612.88;5030484;28;20061;-73
2022/10/27 06:40:42;;;;;;;12.73;6.30;;;;;;;15.63;67.06;101622.03;5030652;28;20415;-72
2022/10/27 06:43:07;;;;;;;10.95;6.32;;;;;;;15.79;66.75;101619.97;5035268;28;20075;-70
2022/10/27 06:45:33;;;;;;;19.52;6.68;;;;;;;15.99;66.35;101628.47;5045104;28;20025;-73
2022/10/27 06:48:00;;;;;;;13.57;5.90;;;;;;;16.09;66.02;101627.94;5031915;28;20080;-73
2022/10/27 06:50:26;;;;;;;14.02;5.55;;;;;;;16.28;66.49;101620.72;5038251;28;20540;-72
2022/10/27 06:52:51;;;;;;;12.13;5.38;;;;;;;16.38;66.29;101624.50;5029821;28;20026;-70
2022/10/27 06:55:17;;;;;;;6.88;4.60;;;;;;;16.31;64.99;101605.16;5041294;28;20075;-73
2022/10/27 06:57:43;;;;;;;9.27;4.30;;;;;;;15.96;66.35;101621.44;5037944;28;20555;-71
2022/10/27 07:00:10;;;;;;;7.47;3.90;;;;;;;15.95;66.92;101630.09;5040310;28;20028;-72
2022/10/27 07:02:35;;;;;;;9.65;3.83;;;;;;;16.21;67.21;101626.56;5041588;28;20025;-71
2022/10/27 07:05:01;;;;;;;9.45;3.88;;;;;;;16.22;67.27;101582.31;5042830;28;20040;-70
2022/10/27 07:07:26;;;;;;;8.05;3.42;;;;;;;16.59;65.36;101625.16;5050015;28;20043;-72
2022/10/27 07:09:52;;;;;;;10.13;4.25;;;;;;;16.54;65.10;101631.97;5049660;28;20043;-78
2022/10/27 07:12:17;;;;;;;6.95;3.80;;;;;;;16.49;65.28;101630.94;5049985;28;20090;-72
2022/10/27 07:14:43;;;;;;;13.70;3.78;;;;;;;16.44;65.69;101622.97;5050415;28;20116;-72
2022/10/27 07:17:08;;;;;;;7.57;3.28;;;;;;;16.41;65.76;101599.44;5050448;28;20061;-72
2022/10/27 07:19:33;;;;;;;4.70;2.88;;;;;;;16.42;65.60;101627.22;5050396;28;20399;-72
2022/10/27 07:21:59;;;;;;;7.15;3.40;;;;;;;16.49;65.00;101612.69;5044159;28;20042;-73
2022/10/27 07:24:24;;;;;;;8.63;3.33;;;;;;;16.72;65.34;101618.59;5030416;28;20030;-72
2022/10/27 07:26:50;;;;;;;6.38;3.30;;;;;;;16.86;64.12;101616.41;5030786;28;20036;-70
2022/10/27 07:29:15;;;;;;;7.88;3.22;;;;;;;16.92;64.39;101621.84;5030794;28;20021;-72
2022/10/27 07:31:44;;;;;;;6.10;3.30;;;;;;;17.09;64.33;101632.75;5041437;28;20479;-72
2022/10/27 07:34:10;;;;;;;10.07;3.65;;;;;;;17.06;63.81;101629.16;5032719;28;20041;-70
2022/10/27 07:36:35;;;;;;;6.05;3.30;;;;;;;17.16;63.30;101628.63;5034154;28;20029;-73
2022/10/27 07:39:01;;;;;;;10.15;3.50;;;;;;;17.30;62.78;101613.34;5034365;28;20143;-73
2022/10/27 07:41:26;;;;;;;6.40;3.20;;;;;;;17.47;62.15;101632.09;5037499;28;20090;-73
2022/10/27 07:43:51;;;;;;;6.95;3.75;;;;;;;17.49;62.26;101643.44;5034222;28;20025;-74
2022/10/27 07:46:17;;;;;;;8.20;4.00;;;;;;;17.38;61.59;101593.53;5034181;28;20464;-72
2022/10/27 07:48:42;;;;;;;9.52;3.58;;;;;;;17.52;60.87;101587.78;5033953;28;20030;-73
2022/10/27 07:51:08;;;;;;;5.25;3.55;;;;;;;18.06;59.68;101636.25;5044411;28;20029;-70
2022/10/27 07:53:33;;;;;;;8.43;3.50;;;;;;;18.20;59.76;101626.97;5034140;28;20037;-73
2022/10/27 07:55:58;;;;;;;6.40;3.22;;;;;;;18.30;59.18;101635.06;5033939;28;20044;-70
2022/10/27 07:58:24;;;;;;;6.93;3.30;;;;;;;18.04;59.48;101638.78;5033990;28;20033;-72
2022/10/27 08:00:49;;;;;;;3.92;2.80;;;;;;;18.08;59.64;101639.75;5034223;28;20041;-75
2022/10/27 08:03:24;;;;;;;6.00;2.88;;;;;;;17.85;59.25;101566.88;5033691;28;20025;-72
2022/10/27 08:05:50;;;;;;;7.35;2.72;;;;;;;18.25;57.85;101596.59;5033775;28;20061;-73
2022/10/27 08:08:16;;;;;;;4.75;2.75;;;;;;;18.62;57.59;101632.28;5033899;28;20432;-74
2022/10/27 08:10:43;;;;;;;25.42;10.40;;;;;;;18.58;58.04;101634.84;5040957;28;20103;-72
2022/10/27 08:13:09;;;;;;;21.40;11.77;;;;;;;18.50;56.65;101596.31;5037166;28;20404;-76
2022/10/27 08:15:36;;;;;;;6.85;3.22;;;;;;;18.50;58.38;101623.31;5033644;28;20029;-73
2022/10/27 08:18:02;;;;;;;5.20;3.10;;;;;;;18.76;56.60;101623.91;5033279;28;20058;-72
2022/10/27 08:20:33;;;;;;;7.38;3.08;;;;;;;18.94;55.88;101630.44;5043764;28;20116;-72
2022/10/27 08:23:04;;;;;;;4.47;2.92;;;;;;;19.12;55.11;101626.44;5050015;28;20035;-73
2022/10/27 08:25:30;;;;;;;5.85;2.92;;;;;;;19.26;54.66;101624.06;5033379;28;20087;-70
2022/10/27 08:27:57;;;;;;;6.18;3.30;;;;;;;18.98;55.27;101631.34;5033395;28;20037;-74
2022/10/27 08:30:24;;;;;;;5.68;2.85;;;;;;;18.84;54.83;101563.00;5033240;28;20021;-73
2022/10/27 08:32:55;;;;;;;7.22;3.42;;;;;;;19.19;54.86;101629.19;5033162;28;20087;-71
2022/10/27 08:35:20;;;;;;;5.97;3.10;;;;;;;19.31;54.48;101630.28;5015511;28;20123;-76
2022/10/27 08:37:46;;;;;;;6.07;3.05;;;;;;;19.31;54.38;101635.53;5033215;28;20472;-73
2022/10/27 08:40:11;;;;;;;7.22;3.15;;;;;;;19.42;54.52;101625.25;5033146;28;20021;-70
2022/10/27 08:42:48;;;;;;;4.40;2.80;;;;;;;19.36;54.44;101637.34;5033298;28;20048;-73
2022/10/27 08:45:18;;;;;;;5.32;3.08;;;;;;;19.26;54.43;101624.06;5032249;28;20469;-75
2022/10/27 08:47:45;;;;;;;5.68;3.30;;;;;;;19.15;55.03;101630.00;5032766;28;20033;-72
2022/10/27 08:50:18;;;;;;;6.20;3.53;;;;;;;19.36;55.23;101634.75;5033035;28;20029;-72
2022/10/27 08:52:53;;;;;;;7.45;3.90;;;;;;;19.64;54.07;101634.38;5032858;28;20036;-73
2022/10/27 08:55:25;;;;;;;9.60;3.15;;;;;;;19.67;53.91;101632.69;5047175;28;20086;-72
2022/10/27 08:58:02;;;;;;;8.13;3.50;;;;;;;19.71;53.44;101634.53;5051382;28;20033;-72
2022/10/27 09:00:33;;;;;;;7.05;3.28;;;;;;;19.53;54.45;101626.34;5048060;28;20469;-72
2022/10/27 09:03:32;;;;;;;8.20;3.40;;;;;;;19.71;53.25;101633.63;5043940;28;20102;-72
2022/10/27 09:06:07;;;;;;;6.72;3.20;;;;;;;19.44;52.56;101594.72;5043358;28;20025;-73
2022/10/27 09:09:10;;;;;;;6.45;2.90;;;;;;;19.76;52.10;101631.09;5043014;28;20110;-72
2022/10/27 09:11:48;;;;;;;5.93;2.65;;;;;;;19.81;52.23;101624.22;5043427;28;20025;-72
2022/10/27 09:15:10;;;;;;;6.57;3.17;;;;;;;20.08;52.36;101618.56;5040837;28;20033;-72
2022/10/27 09:17:39;;;;;;;5.05;3.30;;;;;;;20.12;51.49;101617.75;4956554;28;20055;-72
2022/10/27 09:20:14;;;;;;;5.55;3.08;;;;;;;20.12;52.31;101619.50;4951132;28;20109;-72
2022/10/27 09:22:41;;;;;;;4.38;2.70;;;;;;;20.14;51.07;101609.94;4949471;28;20038;-72
2022/10/27 09:25:16;;;;;;;5.40;2.80;;;;;;;20.36;50.66;101616.38;4948630;28;20085;-72
2022/10/27 09:27:44;;;;;;;5.28;2.63;;;;;;;20.63;50.15;101613.25;4951068;28;20545;-72
2022/10/27 09:30:12;;;;;;;5.00;2.92;;;;;;;20.57;49.61;101609.69;4956642;28;20053;-72
2022/10/27 09:32:41;;;;;;;7.43;3.42;;;;;;;20.73;49.47;101603.81;4951167;28;20027;-77
2022/10/27 09:35:13;;;;;;;8.20;3.30;;;;;;;20.87;50.22;101609.22;4950908;28;20153;-74
2022/10/27 09:37:41;;;;;;;8.02;3.38;;;;;;;21.01;48.84;101601.53;4950750;28;20038;-74
2022/10/27 09:40:17;;;;;;;10.73;3.75;;;;;;;21.15;48.45;101596.44;4951020;28;20038;-75
2022/10/27 09:42:43;;;;;;;8.32;3.55;;;;;;;21.06;47.63;101594.59;4950813;29;20078;-73
2022/10/27 09:45:18;;;;;;;9.07;3.58;;;;;;;21.22;47.99;101589.50;4954460;28;20030;-72
2022/10/27 09:47:48;;;;;;;6.75;3.30;;;;;;;21.32;47.08;101587.00;4993205;28;20111;-75
2022/10/27 09:50:29;;;;;;;8.25;3.38;;;;;;;21.45;46.45;101585.38;5031357;28;20029;-70
2022/10/27 09:52:54;;;;;;;5.95;3.30;;;;;;;21.33;46.37;101582.63;5031641;28;20381;-71
2022/10/27 09:55:20;;;;;;;4.90;3.15;;;;;;;21.38;46.25;101575.66;5031796;28;20036;-69
2022/10/27 09:57:48;;;;;;;4.43;2.92;;;;;;;21.54;46.91;101581.09;5030454;28;20037;-70
2022/10/27 10:00:14;;;;;;;10.63;3.53;;;;;;;21.74;45.43;101583.91;5031672;28;20400;-72
2022/10/27 10:02:51;;;;;;;6.13;3.10;;;;;;;21.84;44.90;101572.59;5029066;28;20050;-72
2022/10/27 10:05:21;;;;;;;6.07;2.55;;;;;;;22.09;43.99;101573.69;5031409;28;20049;-74
2022/10/27 10:07:47;;;;;;;6.97;2.67;;;;;;;22.25;44.02;101568.50;5032049;28;20033;-74
2022/10/27 10:10:18;;;;;;;4.97;2.65;;;;;;;22.43;43.26;101568.66;5031188;28;20028;-73
2022/10/27 10:12:44;;;;;;;7.65;2.90;;;;;;;22.35;43.08;101569.44;5031121;28;20083;-72
2022/10/27 10:15:09;;;;;;;6.20;3.03;;;;;;;21.99;43.35;101527.13;5043943;28;20036;-72
2022/10/27 10:17:37;;;;;;;3.88;2.53;;;;;;;22.25;43.23;101565.88;5050567;28;20128;-72
2022/10/27 10:20:42;;;;;;;5.25;2.55;;;;;;;22.21;43.08;101556.22;5050877;28;20029;-73
2022/10/27 10:23:21;;;;;;;6.20;2.70;;;;;;;22.19;43.59;101555.31;5018350;28;20125;-74
2022/10/27 10:25:48;;;;;;;5.25;2.60;;;;;;;22.17;46.79;101555.31;5019218;28;20029;-72
2022/10/27 10:28:25;;;;;;;8.02;2.83;;;;;;;22.46;43.34;101547.59;5017846;28;20062;-72
2022/10/27 10:30:54;;;;;;;5.93;3.40;;;;;;;22.65;43.24;101547.69;5015113;28;20105;-70
2022/10/27 10:33:23;;;;;;;5.50;2.57;;;;;;;22.81;42.30;101546.00;5017567;28;20042;-70
2022/10/27 10:35:50;;;;;;;6.90;3.00;;;;;;;22.98;42.71;101545.16;5018909;28;20037;-72
2022/10/27 10:38:37;;;;;;;6.88;2.83;;;;;;;23.10;41.82;101554.00;5017872;28;20036;-70
2022/10/27 10:41:16;;;;;;;5.50;2.55;;;;;;;23.17;41.36;101554.03;5009225;28;20065;-72
2022/10/27 10:43:42;;;;;;;5.43;2.70;;;;;;;23.28;42.17;101539.13;5014800;28;20030;-69
2022/10/27 10:46:21;;;;;;;5.68;3.05;;;;;;;23.39;40.90;101544.38;5017786;28;20484;-72
2022/10/27 10:48:51;;;;;;;6.20;2.80;;;;;;;23.24;40.71;101513.63;5012091;28;20121;-69
2022/10/27 10:51:29;;;;;;;6.20;2.70;;;;;;;23.62;41.35;101540.91;5007877;28;20049;-71
2022/10/27 10:54:07;;;;;;;4.82;2.65;;;;;;;23.82;40.61;101531.22;5022077;28;20041;-72
2022/10/27 10:56:35;;;;;;;6.63;2.58;;;;;;;23.55;39.86;101535.63;5031164;28;20018;-72
2022/10/27 10:59:10;;;;;;;4.43;2.88;;;;;;;23.29;40.30;101509.28;5029688;28;20029;-70
2022/10/27 11:01:47;;;;;;;5.78;2.75;;;;;;;23.55;39.64;101535.63;5036240;28;20056;-74
2022/10/27 11:04:17;;;;;;;7.20;2.70;;;;;;;23.58;39.69;101525.06;5050192;28;20029;-69
2022/10/27 11:07:24;;;;;;;7.78;2.80;;;;;;;23.58;39.56;101530.34;5049966;28;20024;-71
2022/10/27 11:10:17;;;;;;;4.60;2.28;;;;;;;23.53;40.97;101531.25;4968376;28;20057;-75
2022/10/27 11:12:50;;;;;;;3.72;2.20;;;;;;;23.53;40.40;101512.78;4968796;28;20027;-71
2022/10/27 11:15:34;;;;;;;4.43;2.70;;;;;;;23.77;39.19;101518.94;4953012;28;20887;-72
2022/10/27 11:18:16;;;;;;;4.22;2.30;;;;;;;23.68;39.19;101504.00;4967359;28;20567;-70
2022/10/27 11:20:45;;;;;;;4.82;2.50;;;;;;;23.71;38.45;101494.34;4968688;28;20043;-70
2022/10/27 11:23:16;;;;;;;5.00;2.50;;;;;;;23.80;37.95;101513.63;4968444;28;20041;-69
2022/10/27 11:25:44;;;;;;;4.18;2.42;;;;;;;23.69;37.92;101496.06;4968785;28;20452;-71
2022/10/27 11:28:15;;;;;;;4.40;2.40;;;;;;;23.93;37.77;101506.63;4967927;28;20110;-70
2022/10/27 11:30:56;;;;;;;4.70;2.55;;;;;;;23.88;37.12;101501.31;4968227;28;20027;-69
2022/10/27 11:33:44;;;;;;;3.65;2.38;;;;;;;23.87;37.21;101503.06;4967961;28;20198;-72
2022/10/27 11:36:20;;;;;;;3.83;1.95;;;;;;;23.87;37.26;101502.19;4967859;28;20490;-69